createdAt,value
2023-04-28T00:06:41.636Z,9.07
2023-04-28T00:16:46.433Z,3.40
2023-04-28T00:26:49.568Z,7.87
2023-04-28T00:36:53.968Z,5.70
2023-04-28T00:46:57.785Z,7.30
2023-04-28T00:57:03.229Z,7.70
2023-04-28T01:07:06.431Z,7.00
2023-04-28T01:17:12.120Z,5.07
2023-04-28T01:27:17.747Z,5.83
2023-04-28T01:37:20.922Z,6.63
2023-04-28T01:47:26.104Z,6.70
2023-04-28T01:57:29.590Z,13.00
2023-04-28T02:07:35.213Z,8.43
2023-04-28T02:17:39.873Z,7.73
2023-04-28T02:39:52.158Z,14.33
2023-04-28T02:49:57.212Z,8.13
2023-04-28T03:00:01.788Z,11.97
2023-04-28T03:10:11.582Z,10.63
2023-04-28T03:20:16.624Z,10.13
2023-04-28T03:30:20.943Z,15.80
2023-04-28T03:40:25.985Z,8.70
2023-04-28T03:50:47.179Z,8.67
2023-04-28T04:00:52.114Z,12.67
2023-04-28T04:10:56.172Z,15.20
2023-04-28T04:21:00.725Z,12.70
2023-04-28T04:31:04.583Z,12.97
2023-04-28T04:41:09.271Z,10.50
2023-04-28T04:51:12.563Z,10.73
2023-04-28T05:01:17.111Z,12.73
2023-04-28T05:11:20.555Z,10.27
2023-04-28T05:21:25.036Z,11.17
2023-04-28T05:31:28.119Z,13.23
2023-04-28T05:41:32.782Z,9.90
2023-04-28T05:51:35.874Z,11.10
2023-04-28T06:01:40.405Z,9.17
2023-04-28T06:11:43.398Z,9.70
2023-04-28T06:21:50.456Z,8.80
2023-04-28T06:31:57.846Z,14.20
2023-04-28T06:42:03.226Z,8.00
2023-04-28T06:52:09.677Z,10.37
2023-04-28T07:02:15.024Z,10.60
2023-04-28T07:12:19.161Z,13.10
2023-04-28T07:22:23.599Z,11.13
2023-04-28T07:32:30.471Z,7.23
2023-04-28T07:42:34.469Z,9.13
2023-04-28T07:52:38.205Z,7.43
2023-04-28T08:02:42.651Z,7.00
2023-04-28T08:12:46.495Z,10.37
2023-04-28T08:22:50.646Z,11.90
2023-04-28T08:32:54.149Z,7.37
2023-04-28T08:42:58.531Z,4.50
2023-04-28T08:53:05.467Z,7.03
2023-04-28T09:03:10.279Z,9.53
2023-04-28T09:13:26.236Z,7.47
2023-04-28T09:23:30.759Z,6.67
2023-04-28T09:33:33.789Z,7.03
2023-04-28T09:43:38.737Z,4.80
2023-04-28T09:53:44.283Z,5.87
2023-04-28T10:03:51.181Z,7.83
2023-04-28T10:13:55.360Z,4.90
2023-04-28T10:24:11.424Z,5.87
2023-04-28T10:34:24.529Z,6.50
2023-04-28T10:44:44.287Z,4.60
2023-04-28T10:55:28.830Z,3.70
2023-04-28T11:05:34.740Z,4.73
2023-04-28T11:15:37.604Z,3.73
2023-04-28T11:36:09.377Z,4.93
2023-04-28T11:46:17.994Z,7.57
2023-04-28T11:56:22.557Z,6.57
2023-04-28T12:06:25.647Z,4.03
2023-04-28T12:16:48.558Z,2.13
2023-04-28T12:26:51.718Z,6.07
2023-04-28T12:36:56.185Z,5.13
2023-04-28T12:46:59.162Z,4.73
2023-04-28T12:57:04.066Z,5.40
2023-04-28T13:07:07.875Z,4.10
2023-04-28T13:17:13.701Z,0.93
2023-04-28T13:27:16.809Z,2.47
2023-04-28T13:37:21.248Z,3.67
2023-04-28T13:47:24.621Z,7.50
2023-04-28T13:57:29.075Z,3.43
2023-04-28T14:07:31.782Z,3.53
2023-04-28T14:17:36.677Z,5.33
2023-04-28T14:27:40.511Z,3.30
2023-04-28T14:37:45.245Z,2.87
2023-04-28T14:47:48.722Z,3.30
2023-04-28T14:57:53.262Z,2.50
2023-04-28T15:07:57.264Z,1.47
2023-04-28T15:18:02.258Z,1.20
2023-04-28T15:28:07.234Z,1.73
2023-04-28T15:38:12.262Z,1.67
2023-04-28T15:48:15.634Z,5.40
2023-04-28T15:58:20.494Z,1.73
2023-04-28T16:08:25.416Z,0.53
2023-04-28T16:18:30.293Z,0.40
2023-04-28T16:28:33.552Z,3.63
2023-04-28T16:38:38.207Z,7.93
2023-04-28T16:48:41.174Z,3.47
2023-04-28T16:58:45.410Z,4.77
2023-04-28T17:08:50.643Z,1.77
2023-04-28T17:18:55.294Z,4.17
2023-04-28T17:28:59.973Z,2.57
2023-04-28T17:39:05.148Z,1.73
2023-04-28T17:49:08.640Z,2.90
2023-04-28T17:59:14.513Z,2.70
2023-04-28T18:09:17.872Z,1.50
2023-04-28T18:19:23.412Z,1.47
2023-04-28T18:29:26.665Z,1.87
2023-04-28T18:39:30.998Z,1.50
2023-04-28T18:49:34.704Z,1.00
2023-04-28T18:59:40.118Z,2.67
2023-04-28T19:09:43.379Z,0.80
2023-04-28T19:19:48.139Z,1.33
2023-04-28T19:29:52.409Z,1.80
2023-04-28T19:39:57.074Z,3.00
2023-04-28T19:50:00.143Z,1.57
2023-04-28T20:00:05.189Z,2.50
2023-04-28T20:10:12.823Z,1.45
2023-04-28T20:20:17.109Z,3.33
2023-04-28T20:30:23.858Z,2.70
2023-04-28T20:40:28.350Z,2.60
2023-04-28T20:50:33.458Z,1.60
2023-04-28T21:00:40.521Z,1.80
2023-04-28T21:10:43.735Z,2.43
2023-04-28T21:20:48.341Z,1.73
2023-04-28T21:30:52.967Z,1.87
2023-04-28T21:40:58.211Z,2.40
2023-04-28T21:51:01.723Z,2.90
2023-04-28T22:01:07.962Z,4.07
2023-04-28T22:11:11.471Z,1.50
2023-04-28T22:21:16.008Z,2.40
2023-04-28T22:31:18.875Z,3.87
2023-04-28T22:41:24.658Z,4.70
2023-04-28T22:51:28.816Z,6.93
2023-04-28T23:01:33.397Z,4.27
2023-04-28T23:11:37.000Z,6.00
2023-04-28T23:21:41.273Z,4.80
2023-04-28T23:31:44.061Z,6.33
2023-04-28T23:41:48.248Z,9.73
2023-04-28T23:51:51.291Z,6.77
